sensor_id;sensor_type;location;lat;lon;timestamp;temperature;humidity
11511;DHT22;5812;48.864;9.190;2022-09-30T00:00:27;8.00;99.90
11511;DHT22;5812;48.864;9.190;2022-09-30T00:02:53;8.10;99.90
11511;DHT22;5812;48.864;9.190;2022-09-30T00:05:19;8.00;99.90
11511;DHT22;5812;48.864;9.190;2022-09-30T00:07:45;8.00;99.90
11511;DHT22;5812;48.864;9.190;2022-09-30T00:10:10;8.00;99.90
11511;DHT22;5812;48.864;9.190;2022-09-30T00:12:38;8.00;99.90
11511;DHT22;5812;48.864;9.190;2022-09-30T00:15:04;8.00;99.90
11511;DHT22;5812;48.864;9.190;2022-09-30T00:17:30;8.20;99.90
11511;DHT22;5812;48.864;9.190;2022-09-30T00:19:55;8.20;99.90
11511;DHT22;5812;48.864;9.190;2022-09-30T00:22:21;8.10;99.90
11511;DHT22;5812;48.864;9.190;2022-09-30T00:24:46;8.10;99.90
11511;DHT22;5812;48.864;9.190;2022-09-30T00:27:12;8.10;99.90
11511;DHT22;5812;48.864;9.190;2022-09-30T00:29:42;8.10;99.90
11511;DHT22;5812;48.864;9.190;2022-09-30T00:32:08;8.20;99.90
11511;DHT22;5812;48.864;9.190;2022-09-30T00:34:34;8.30;99.90
11511;DHT22;5812;48.864;9.190;2022-09-30T00:36:59;8.30;99.90
11511;DHT22;5812;48.864;9.190;2022-09-30T00:39:27;8.20;99.90
11511;DHT22;5812;48.864;9.190;2022-09-30T00:41:59;8.30;99.90
11511;DHT22;5812;48.864;9.190;2022-09-30T00:44:44;8.30;99.90
11511;DHT22;5812;48.864;9.190;2022-09-30T00:47:30;8.20;99.90
11511;DHT22;5812;48.864;9.190;2022-09-30T00:50:19;8.40;99.90
11511;DHT22;5812;48.864;9.190;2022-09-30T00:52:59;8.70;99.90
11511;DHT22;5812;48.864;9.190;2022-09-30T00:57:56;8.70;99.90
11511;DHT22;5812;48.864;9.190;2022-09-30T01:00:23;8.50;99.90
11511;DHT22;5812;48.864;9.190;2022-09-30T01:02:49;8.40;99.90
11511;DHT22;5812;48.864;9.190;2022-09-30T01:05:15;8.40;99.90
11511;DHT22;5812;48.864;9.190;2022-09-30T01:07:40;8.50;99.90
11511;DHT22;5812;48.864;9.190;2022-09-30T01:10:06;8.60;99.90
11511;DHT22;5812;48.864;9.190;2022-09-30T01:12:32;8.50;99.90
11511;DHT22;5812;48.864;9.190;2022-09-30T01:14:58;8.60;99.90
11511;DHT22;5812;48.864;9.190;2022-09-30T01:17:42;8.70;99.90
11511;DHT22;5812;48.864;9.190;2022-09-30T01:33:51;8.60;99.90
11511;DHT22;5812;48.864;9.190;2022-09-30T01:36:27;8.50;99.90
11511;DHT22;5812;48.864;9.190;2022-09-30T01:39:04;8.50;99.90
11511;DHT22;5812;48.864;9.190;2022-09-30T01:42:11;8.50;99.90
11511;DHT22;5812;48.864;9.190;2022-09-30T01:45:04;8.50;99.90
11511;DHT22;5812;48.864;9.190;2022-09-30T01:47:41;8.60;99.90
11511;DHT22;5812;48.864;9.190;2022-09-30T01:50:18;8.50;99.90
11511;DHT22;5812;48.864;9.190;2022-09-30T01:53:07;8.50;99.90
11511;DHT22;5812;48.864;9.190;2022-09-30T02:01:26;8.30;99.90
11511;DHT22;5812;48.864;9.190;2022-09-30T02:03:58;8.30;99.90
11511;DHT22;5812;48.864;9.190;2022-09-30T02:06:37;8.40;99.90
11511;DHT22;5812;48.864;9.190;2022-09-30T02:09:30;8.40;99.90
11511;DHT22;5812;48.864;9.190;2022-09-30T02:12:01;8.40;99.90
11511;DHT22;5812;48.864;9.190;2022-09-30T02:14:46;8.30;99.90
11511;DHT22;5812;48.864;9.190;2022-09-30T02:17:17;8.40;99.90
11511;DHT22;5812;48.864;9.190;2022-09-30T02:20:02;8.40;99.90
11511;DHT22;5812;48.864;9.190;2022-09-30T02:22:37;8.40;99.90
11511;DHT22;5812;48.864;9.190;2022-09-30T02:25:11;8.40;99.90
11511;DHT22;5812;48.864;9.190;2022-09-30T02:27:47;8.40;99.90
11511;DHT22;5812;48.864;9.190;2022-09-30T02:30:14;8.40;99.90
11511;DHT22;5812;48.864;9.190;2022-09-30T02:32:45;8.40;99.90
11511;DHT22;5812;48.864;9.190;2022-09-30T02:35:20;8.40;99.90
11511;DHT22;5812;48.864;9.190;2022-09-30T02:37:51;8.40;99.90
11511;DHT22;5812;48.864;9.190;2022-09-30T02:40:32;8.40;99.90
11511;DHT22;5812;48.864;9.190;2022-09-30T02:43:01;8.50;99.90
11511;DHT22;5812;48.864;9.190;2022-09-30T02:45:31;8.50;99.90
11511;DHT22;5812;48.864;9.190;2022-09-30T02:51:05;8.30;99.90
11511;DHT22;5812;48.864;9.190;2022-09-30T02:58:52;7.80;99.90
11511;DHT22;5812;48.864;9.190;2022-09-30T03:01:20;7.70;99.90
11511;DHT22;5812;48.864;9.190;2022-09-30T03:03:50;7.70;99.90
11511;DHT22;5812;48.864;9.190;2022-09-30T03:06:16;7.60;99.90
11511;DHT22;5812;48.864;9.190;2022-09-30T03:08:42;7.60;99.90
11511;DHT22;5812;48.864;9.190;2022-09-30T03:11:15;7.50;99.90
11511;DHT22;5812;48.864;9.190;2022-09-30T03:14:01;7.50;99.90
11511;DHT22;5812;48.864;9.190;2022-09-30T03:22:46;7.60;99.90
11511;DHT22;5812;48.864;9.190;2022-09-30T03:25:49;7.60;99.90
11511;DHT22;5812;48.864;9.190;2022-09-30T03:28:28;7.60;99.90
11511;DHT22;5812;48.864;9.190;2022-09-30T03:34:04;7.50;99.90
11511;DHT22;5812;48.864;9.190;2022-09-30T03:39:45;7.50;99.90
11511;DHT22;5812;48.864;9.190;2022-09-30T03:42:32;7.40;99.90
11511;DHT22;5812;48.864;9.190;2022-09-30T03:45:26;7.40;99.90
11511;DHT22;5812;48.864;9.190;2022-09-30T03:47:55;7.60;99.90
11511;DHT22;5812;48.864;9.190;2022-09-30T03:50:24;7.50;99.90
11511;DHT22;5812;48.864;9.190;2022-09-30T03:52:52;7.40;99.90
11511;DHT22;5812;48.864;9.190;2022-09-30T03:55:18;7.30;99.90
11511;DHT22;5812;48.864;9.190;2022-09-30T03:57:44;7.20;99.90
11511;DHT22;5812;48.864;9.190;2022-09-30T04:00:11;7.20;99.90
11511;DHT22;5812;48.864;9.190;2022-09-30T04:02:37;7.20;99.90
11511;DHT22;5812;48.864;9.190;2022-09-30T04:05:04;7.30;99.90
11511;DHT22;5812;48.864;9.190;2022-09-30T04:07:31;7.20;99.90
11511;DHT22;5812;48.864;9.190;2022-09-30T04:09:56;7.20;99.90
11511;DHT22;5812;48.864;9.190;2022-09-30T04:12:22;7.30;99.90
11511;DHT22;5812;48.864;9.190;2022-09-30T04:14:48;8.10;99.90
11511;DHT22;5812;48.864;9.190;2022-09-30T04:17:13;7.30;99.90
11511;DHT22;5812;48.864;9.190;2022-09-30T04:19:39;7.30;99.90
11511;DHT22;5812;48.864;9.190;2022-09-30T04:22:06;7.20;99.90
11511;DHT22;5812;48.864;9.190;2022-09-30T04:24:32;7.20;99.90
11511;DHT22;5812;48.864;9.190;2022-09-30T04:26:58;7.20;99.90
11511;DHT22;5812;48.864;9.190;2022-09-30T04:29:23;7.10;99.90
11511;DHT22;5812;48.864;9.190;2022-09-30T04:31:49;6.90;99.90
11511;DHT22;5812;48.864;9.190;2022-09-30T04:34:15;6.90;99.90
11511;DHT22;5812;48.864;9.190;2022-09-30T04:36:40;6.90;99.90
11511;DHT22;5812;48.864;9.190;2022-09-30T04:39:06;6.90;99.90
11511;DHT22;5812;48.864;9.190;2022-09-30T04:41:31;6.90;99.90
11511;DHT22;5812;48.864;9.190;2022-09-30T04:43:58;6.80;99.90
11511;DHT22;5812;48.864;9.190;2022-09-30T04:46:25;6.80;99.90
11511;DHT22;5812;48.864;9.190;2022-09-30T04:48:50;6.60;99.90
11511;DHT22;5812;48.864;9.190;2022-09-30T04:51:20;6.60;99.90
11511;DHT22;5812;48.864;9.190;2022-09-30T04:53:47;6.50;99.90
11511;DHT22;5812;48.864;9.190;2022-09-30T04:56:13;6.50;99.90
11511;DHT22;5812;48.864;9.190;2022-09-30T04:58:41;6.40;99.90
11511;DHT22;5812;48.864;9.190;2022-09-30T05:01:17;6.40;99.90
11511;DHT22;5812;48.864;9.190;2022-09-30T05:03:43;6.40;99.90
11511;DHT22;5812;48.864;9.190;2022-09-30T05:06:10;6.30;99.90
11511;DHT22;5812;48.864;9.190;2022-09-30T05:08:36;6.30;99.90
11511;DHT22;5812;48.864;9.190;2022-09-30T05:11:05;6.30;99.90
11511;DHT22;5812;48.864;9.190;2022-09-30T05:13:36;6.30;99.90
11511;DHT22;5812;48.864;9.190;2022-09-30T05:16:02;6.40;99.90
11511;DHT22;5812;48.864;9.190;2022-09-30T05:18:28;6.40;99.90
11511;DHT22;5812;48.864;9.190;2022-09-30T05:20:56;6.40;99.90
11511;DHT22;5812;48.864;9.190;2022-09-30T05:23:23;6.60;99.90
11511;DHT22;5812;48.864;9.190;2022-09-30T05:25:49;6.80;99.90
11511;DHT22;5812;48.864;9.190;2022-09-30T05:28:15;6.70;99.90
11511;DHT22;5812;48.864;9.190;2022-09-30T05:30:41;6.70;99.90
11511;DHT22;5812;48.864;9.190;2022-09-30T05:33:08;6.60;99.90
11511;DHT22;5812;48.864;9.190;2022-09-30T05:35:34;6.70;99.90
11511;DHT22;5812;48.864;9.190;2022-09-30T05:38:00;6.60;99.90
11511;DHT22;5812;48.864;9.190;2022-09-30T05:40:28;6.70;99.90
11511;DHT22;5812;48.864;9.190;2022-09-30T05:42:56;6.80;99.90
11511;DHT22;5812;48.864;9.190;2022-09-30T05:45:22;6.80;99.90
11511;DHT22;5812;48.864;9.190;2022-09-30T05:47:52;6.90;99.90
11511;DHT22;5812;48.864;9.190;2022-09-30T05:50:17;6.90;99.90
11511;DHT22;5812;48.864;9.190;2022-09-30T05:52:43;6.80;99.90
11511;DHT22;5812;48.864;9.190;2022-09-30T05:55:09;6.80;99.90
11511;DHT22;5812;48.864;9.190;2022-09-30T05:57:34;6.80;99.90
11511;DHT22;5812;48.864;9.190;2022-09-30T06:00:00;6.90;99.90
11511;DHT22;5812;48.864;9.190;2022-09-30T06:02:26;7.10;99.90
11511;DHT22;5812;48.864;9.190;2022-09-30T06:04:52;7.30;99.90
11511;DHT22;5812;48.864;9.190;2022-09-30T06:07:17;7.30;99.90
11511;DHT22;5812;48.864;9.190;2022-09-30T06:09:43;7.20;99.90
11511;DHT22;5812;48.864;9.190;2022-09-30T06:12:10;7.10;99.90
11511;DHT22;5812;48.864;9.190;2022-09-30T06:14:36;7.20;99.90
11511;DHT22;5812;48.864;9.190;2022-09-30T06:17:02;7.20;99.90
11511;DHT22;5812;48.864;9.190;2022-09-30T06:19:27;7.40;99.90
11511;DHT22;5812;48.864;9.190;2022-09-30T06:21:55;7.50;99.90
11511;DHT22;5812;48.864;9.190;2022-09-30T06:24:20;7.80;99.90
11511;DHT22;5812;48.864;9.190;2022-09-30T06:26:46;7.90;99.90
11511;DHT22;5812;48.864;9.190;2022-09-30T06:29:11;8.00;99.90
11511;DHT22;5812;48.864;9.190;2022-09-30T06:31:37;8.00;99.90
11511;DHT22;5812;48.864;9.190;2022-09-30T06:34:03;8.30;99.90
11511;DHT22;5812;48.864;9.190;2022-09-30T06:36:29;8.50;99.90
11511;DHT22;5812;48.864;9.190;2022-09-30T06:39:00;8.60;99.90
11511;DHT22;5812;48.864;9.190;2022-09-30T06:41:26;8.80;99.90
11511;DHT22;5812;48.864;9.190;2022-09-30T06:43:53;8.90;99.90
11511;DHT22;5812;48.864;9.190;2022-09-30T06:46:19;9.00;99.90
11511;DHT22;5812;48.864;9.190;2022-09-30T06:48:48;9.00;99.90
11511;DHT22;5812;48.864;9.190;2022-09-30T06:51:17;9.00;99.90
11511;DHT22;5812;48.864;9.190;2022-09-30T06:53:43;9.10;99.90
11511;DHT22;5812;48.864;9.190;2022-09-30T06:56:08;9.10;99.90
11511;DHT22;5812;48.864;9.190;2022-09-30T06:58:34;9.20;99.90
11511;DHT22;5812;48.864;9.190;2022-09-30T07:01:04;9.20;99.90
11511;DHT22;5812;48.864;9.190;2022-09-30T07:03:32;9.30;99.90
11511;DHT22;5812;48.864;9.190;2022-09-30T07:05:59;9.40;99.90
11511;DHT22;5812;48.864;9.190;2022-09-30T07:08:27;9.50;99.90
11511;DHT22;5812;48.864;9.190;2022-09-30T07:11:00;9.50;99.90
11511;DHT22;5812;48.864;9.190;2022-09-30T07:13:27;9.40;99.90
11511;DHT22;5812;48.864;9.190;2022-09-30T07:15:53;9.40;99.90
11511;DHT22;5812;48.864;9.190;2022-09-30T07:18:21;9.20;99.90
11511;DHT22;5812;48.864;9.190;2022-09-30T07:20:50;9.30;99.90
11511;DHT22;5812;48.864;9.190;2022-09-30T07:23:16;9.70;99.90
11511;DHT22;5812;48.864;9.190;2022-09-30T07:25:56;9.80;99.90
11511;DHT22;5812;48.864;9.190;2022-09-30T07:28:27;9.90;99.90
11511;DHT22;5812;48.864;9.190;2022-09-30T07:30:56;10.30;99.90
11511;DHT22;5812;48.864;9.190;2022-09-30T07:33:23;10.40;99.90
11511;DHT22;5812;48.864;9.190;2022-09-30T07:35:54;10.50;99.90
11511;DHT22;5812;48.864;9.190;2022-09-30T07:38:22;10.60;99.90
11511;DHT22;5812;48.864;9.190;2022-09-30T07:43:20;10.40;99.90
11511;DHT22;5812;48.864;9.190;2022-09-30T07:45:47;10.50;99.90
11511;DHT22;5812;48.864;9.190;2022-09-30T07:48:13;10.70;99.90
11511;DHT22;5812;48.864;9.190;2022-09-30T07:50:59;10.60;99.90
11511;DHT22;5812;48.864;9.190;2022-09-30T07:53:25;10.60;99.90
11511;DHT22;5812;48.864;9.190;2022-09-30T07:55:50;10.60;99.90
11511;DHT22;5812;48.864;9.190;2022-09-30T07:58:16;10.70;99.90
11511;DHT22;5812;48.864;9.190;2022-09-30T08:00:42;10.60;99.90
11511;DHT22;5812;48.864;9.190;2022-09-30T08:03:08;10.60;99.90
11511;DHT22;5812;48.864;9.190;2022-09-30T08:05:41;10.90;99.90
11511;DHT22;5812;48.864;9.190;2022-09-30T08:08:10;10.70;99.90
11511;DHT22;5812;48.864;9.190;2022-09-30T08:10:35;10.90;99.90
11511;DHT22;5812;48.864;9.190;2022-09-30T08:13:01;10.90;99.90
11511;DHT22;5812;48.864;9.190;2022-09-30T08:15:27;11.10;99.90
11511;DHT22;5812;48.864;9.190;2022-09-30T08:17:52;11.10;99.90
11511;DHT22;5812;48.864;9.190;2022-09-30T08:20:18;11.20;99.90
11511;DHT22;5812;48.864;9.190;2022-09-30T08:22:44;11.30;99.90
11511;DHT22;5812;48.864;9.190;2022-09-30T08:25:09;11.30;99.90
11511;DHT22;5812;48.864;9.190;2022-09-30T08:27:35;11.30;99.90
11511;DHT22;5812;48.864;9.190;2022-09-30T08:30:00;11.30;99.90
11511;DHT22;5812;48.864;9.190;2022-09-30T08:32:29;11.50;99.90
11511;DHT22;5812;48.864;9.190;2022-09-30T08:34:55;11.60;99.90
11511;DHT22;5812;48.864;9.190;2022-09-30T08:37:20;11.80;99.90
11511;DHT22;5812;48.864;9.190;2022-09-30T08:39:46;12.00;99.90
11511;DHT22;5812;48.864;9.190;2022-09-30T08:42:18;12.20;99.90
11511;DHT22;5812;48.864;9.190;2022-09-30T08:44:49;12.50;99.90
11511;DHT22;5812;48.864;9.190;2022-09-30T08:47:25;12.80;99.90
11511;DHT22;5812;48.864;9.190;2022-09-30T08:53:06;12.90;99.90
11511;DHT22;5812;48.864;9.190;2022-09-30T08:55:42;13.20;99.90
11511;DHT22;5812;48.864;9.190;2022-09-30T08:58:26;13.60;99.90
11511;DHT22;5812;48.864;9.190;2022-09-30T09:00:57;13.70;99.90
11511;DHT22;5812;48.864;9.190;2022-09-30T09:03:27;13.90;99.90
11511;DHT22;5812;48.864;9.190;2022-09-30T09:06:07;14.00;99.90
11511;DHT22;5812;48.864;9.190;2022-09-30T09:09:10;14.40;99.90
11511;DHT22;5812;48.864;9.190;2022-09-30T09:20:14;16.00;99.90
11511;DHT22;5812;48.864;9.190;2022-09-30T09:22:41;16.30;99.90
11511;DHT22;5812;48.864;9.190;2022-09-30T09:25:13;16.80;99.90
11511;DHT22;5812;48.864;9.190;2022-09-30T09:30:11;17.00;99.90
11511;DHT22;5812;48.864;9.190;2022-09-30T09:32:37;16.70;99.90
11511;DHT22;5812;48.864;9.190;2022-09-30T09:40:51;17.10;99.90
11511;DHT22;5812;48.864;9.190;2022-09-30T09:43:33;17.20;99.90
11511;DHT22;5812;48.864;9.190;2022-09-30T09:46:29;17.40;99.90
11511;DHT22;5812;48.864;9.190;2022-09-30T09:51:44;18.80;99.90
11511;DHT22;5812;48.864;9.190;2022-09-30T09:54:12;18.50;99.90
11511;DHT22;5812;48.864;9.190;2022-09-30T09:56:41;17.60;99.90
11511;DHT22;5812;48.864;9.190;2022-09-30T09:59:10;17.60;99.90
11511;DHT22;5812;48.864;9.190;2022-09-30T10:01:45;18.00;99.90
11511;DHT22;5812;48.864;9.190;2022-09-30T10:04:46;17.80;99.90
11511;DHT22;5812;48.864;9.190;2022-09-30T10:07:19;17.60;99.90
11511;DHT22;5812;48.864;9.190;2022-09-30T10:09:44;18.20;99.90
11511;DHT22;5812;48.864;9.190;2022-09-30T10:17:21;18.50;99.90
11511;DHT22;5812;48.864;9.190;2022-09-30T10:19:52;18.80;99.90
11511;DHT22;5812;48.864;9.190;2022-09-30T10:22:26;18.90;99.90
11511;DHT22;5812;48.864;9.190;2022-09-30T10:27:50;19.20;99.90
11511;DHT22;5812;48.864;9.190;2022-09-30T10:30:56;18.80;99.90
11511;DHT22;5812;48.864;9.190;2022-09-30T10:38:29;19.60;99.90
11511;DHT22;5812;48.864;9.190;2022-09-30T10:40:58;20.10;99.90
11511;DHT22;5812;48.864;9.190;2022-09-30T10:43:30;20.50;99.90
11511;DHT22;5812;48.864;9.190;2022-09-30T10:45:58;21.50;99.90
11511;DHT22;5812;48.864;9.190;2022-09-30T10:48:32;21.30;94.90
11511;DHT22;5812;48.864;9.190;2022-09-30T10:50:58;21.40;99.90
11511;DHT22;5812;48.864;9.190;2022-09-30T10:53:26;21.30;99.10
11511;DHT22;5812;48.864;9.190;2022-09-30T10:55:54;21.70;97.10
11511;DHT22;5812;48.864;9.190;2022-09-30T11:01:24;23.00;95.30
11511;DHT22;5812;48.864;9.190;2022-09-30T11:04:07;23.60;93.90
11511;DHT22;5812;48.864;9.190;2022-09-30T11:06:39;24.60;94.60
11511;DHT22;5812;48.864;9.190;2022-09-30T11:09:11;25.60;93.10
11511;DHT22;5812;48.864;9.190;2022-09-30T11:11:52;25.50;85.80
11511;DHT22;5812;48.864;9.190;2022-09-30T11:14:34;25.20;81.30
11511;DHT22;5812;48.864;9.190;2022-09-30T11:20:22;24.50;76.90
11511;DHT22;5812;48.864;9.190;2022-09-30T11:30:35;25.80;73.20
11511;DHT22;5812;48.864;9.190;2022-09-30T11:41:27;28.20;73.50
11511;DHT22;5812;48.864;9.190;2022-09-30T11:46:46;26.70;65.40
11511;DHT22;5812;48.864;9.190;2022-09-30T11:57:40;28.40;55.70
11511;DHT22;5812;48.864;9.190;2022-09-30T12:00:17;27.80;56.00
11511;DHT22;5812;48.864;9.190;2022-09-30T12:02:55;28.80;56.40
11511;DHT22;5812;48.864;9.190;2022-09-30T12:05:29;28.80;57.10
11511;DHT22;5812;48.864;9.190;2022-09-30T12:08:09;29.10;55.00
11511;DHT22;5812;48.864;9.190;2022-09-30T12:10:46;28.00;54.20
11511;DHT22;5812;48.864;9.190;2022-09-30T12:13:21;26.00;55.20
11511;DHT22;5812;48.864;9.190;2022-09-30T12:15:51;23.90;43.90
11511;DHT22;5812;48.864;9.190;2022-09-30T12:18:40;22.80;47.90
11511;DHT22;5812;48.864;9.190;2022-09-30T12:21:21;23.60;49.30
11511;DHT22;5812;48.864;9.190;2022-09-30T12:23:53;24.50;45.20
11511;DHT22;5812;48.864;9.190;2022-09-30T12:26:23;25.60;62.00
11511;DHT22;5812;48.864;9.190;2022-09-30T12:29:23;26.60;57.30
11511;DHT22;5812;48.864;9.190;2022-09-30T12:40:29;28.10;57.80
11511;DHT22;5812;48.864;9.190;2022-09-30T12:48:56;30.00;53.20
11511;DHT22;5812;48.864;9.190;2022-09-30T12:51:29;29.90;49.10
11511;DHT22;5812;48.864;9.190;2022-09-30T12:53:59;29.30;46.40
11511;DHT22;5812;48.864;9.190;2022-09-30T12:56:28;26.20;50.50
11511;DHT22;5812;48.864;9.190;2022-09-30T12:58:55;24.10;36.60
11511;DHT22;5812;48.864;9.190;2022-09-30T13:01:29;24.10;40.20
11511;DHT22;5812;48.864;9.190;2022-09-30T13:06:24;27.80;50.60
11511;DHT22;5812;48.864;9.190;2022-09-30T13:11:32;28.70;49.10
11511;DHT22;5812;48.864;9.190;2022-09-30T13:14:11;27.60;49.20
11511;DHT22;5812;48.864;9.190;2022-09-30T13:16:57;26.90;49.70
11511;DHT22;5812;48.864;9.190;2022-09-30T13:27:44;22.70;44.50
11511;DHT22;5812;48.864;9.190;2022-09-30T13:36:06;21.90;46.10
11511;DHT22;5812;48.864;9.190;2022-09-30T13:38:37;21.60;50.30
11511;DHT22;5812;48.864;9.190;2022-09-30T13:41:22;21.40;46.90
11511;DHT22;5812;48.864;9.190;2022-09-30T13:44:07;21.00;44.00
11511;DHT22;5812;48.864;9.190;2022-09-30T13:46:47;20.70;51.40
11511;DHT22;5812;48.864;9.190;2022-09-30T13:51:45;20.50;51.70
11511;DHT22;5812;48.864;9.190;2022-09-30T13:54:31;19.80;49.70
11511;DHT22;5812;48.864;9.190;2022-09-30T13:56:59;19.70;52.00
11511;DHT22;5812;48.864;9.190;2022-09-30T14:05:25;19.10;51.50
11511;DHT22;5812;48.864;9.190;2022-09-30T14:08:09;19.30;56.30
11511;DHT22;5812;48.864;9.190;2022-09-30T14:11:04;19.30;54.70
11511;DHT22;5812;48.864;9.190;2022-09-30T14:22:13;18.80;64.40
11511;DHT22;5812;48.864;9.190;2022-09-30T14:24:39;18.70;66.40
11511;DHT22;5812;48.864;9.190;2022-09-30T14:27:26;18.60;64.20
11511;DHT22;5812;48.864;9.190;2022-09-30T14:30:18;18.40;59.50
11511;DHT22;5812;48.864;9.190;2022-09-30T14:32:48;18.50;68.30
11511;DHT22;5812;48.864;9.190;2022-09-30T14:35:21;18.50;64.00
11511;DHT22;5812;48.864;9.190;2022-09-30T14:37:59;18.60;62.30
11511;DHT22;5812;48.864;9.190;2022-09-30T14:40:31;18.50;67.10
11511;DHT22;5812;48.864;9.190;2022-09-30T14:43:00;18.50;68.00
11511;DHT22;5812;48.864;9.190;2022-09-30T14:45:30;18.40;67.70
11511;DHT22;5812;48.864;9.190;2022-09-30T14:48:00;18.30;67.50
11511;DHT22;5812;48.864;9.190;2022-09-30T14:50:29;18.30;63.30
11511;DHT22;5812;48.864;9.190;2022-09-30T14:52:58;18.20;58.50
11511;DHT22;5812;48.864;9.190;2022-09-30T14:55:32;18.20;66.10
11511;DHT22;5812;48.864;9.190;2022-09-30T14:58:24;18.20;67.30
11511;DHT22;5812;48.864;9.190;2022-09-30T15:03:27;18.10;66.80
11511;DHT22;5812;48.864;9.190;2022-09-30T15:05:55;18.10;65.10
11511;DHT22;5812;48.864;9.190;2022-09-30T15:08:21;18.00;67.00
11511;DHT22;5812;48.864;9.190;2022-09-30T15:10:54;18.00;65.50
11511;DHT22;5812;48.864;9.190;2022-09-30T15:13:25;18.10;64.80
11511;DHT22;5812;48.864;9.190;2022-09-30T15:15:52;17.90;63.40
11511;DHT22;5812;48.864;9.190;2022-09-30T15:18:24;17.50;69.80
11511;DHT22;5812;48.864;9.190;2022-09-30T15:20:51;17.30;69.80
11511;DHT22;5812;48.864;9.190;2022-09-30T15:23:28;17.00;70.70
11511;DHT22;5812;48.864;9.190;2022-09-30T15:25:54;16.70;72.70
11511;DHT22;5812;48.864;9.190;2022-09-30T15:28:21;16.60;70.50
11511;DHT22;5812;48.864;9.190;2022-09-30T15:30:47;16.40;74.30
11511;DHT22;5812;48.864;9.190;2022-09-30T15:33:18;16.20;78.20
11511;DHT22;5812;48.864;9.190;2022-09-30T15:35:44;16.10;81.50
11511;DHT22;5812;48.864;9.190;2022-09-30T15:38:23;15.90;91.10
11511;DHT22;5812;48.864;9.190;2022-09-30T15:40:55;15.90;88.60
11511;DHT22;5812;48.864;9.190;2022-09-30T15:43:35;15.70;90.70
11511;DHT22;5812;48.864;9.190;2022-09-30T15:46:32;15.60;88.40
11511;DHT22;5812;48.864;9.190;2022-09-30T15:49:04;15.50;91.30
11511;DHT22;5812;48.864;9.190;2022-09-30T15:51:40;15.50;92.00
11511;DHT22;5812;48.864;9.190;2022-09-30T15:56:51;15.40;93.30
11511;DHT22;5812;48.864;9.190;2022-09-30T15:59:16;15.40;94.50
11511;DHT22;5812;48.864;9.190;2022-09-30T16:01:48;15.30;92.80
11511;DHT22;5812;48.864;9.190;2022-09-30T16:09:36;15.10;94.10
11511;DHT22;5812;48.864;9.190;2022-09-30T16:14:50;15.00;97.20
11511;DHT22;5812;48.864;9.190;2022-09-30T16:17:25;14.90;97.90
11511;DHT22;5812;48.864;9.190;2022-09-30T16:20:02;14.60;98.20
11511;DHT22;5812;48.864;9.190;2022-09-30T16:27:44;14.20;99.90
11511;DHT22;5812;48.864;9.190;2022-09-30T16:30:15;14.00;99.90
11511;DHT22;5812;48.864;9.190;2022-09-30T16:32:44;13.90;99.90
11511;DHT22;5812;48.864;9.190;2022-09-30T16:35:19;13.70;99.90
11511;DHT22;5812;48.864;9.190;2022-09-30T16:37:45;13.70;99.90
11511;DHT22;5812;48.864;9.190;2022-09-30T16:40:23;13.70;99.90
11511;DHT22;5812;48.864;9.190;2022-09-30T16:42:51;13.50;99.90
11511;DHT22;5812;48.864;9.190;2022-09-30T16:45:19;13.50;99.90
11511;DHT22;5812;48.864;9.190;2022-09-30T16:47:45;13.30;99.90
11511;DHT22;5812;48.864;9.190;2022-09-30T16:52:56;13.20;99.90
11511;DHT22;5812;48.864;9.190;2022-09-30T16:55:25;13.10;99.90
11511;DHT22;5812;48.864;9.190;2022-09-30T16:57:52;13.00;99.90
11511;DHT22;5812;48.864;9.190;2022-09-30T17:00:20;13.00;99.90
11511;DHT22;5812;48.864;9.190;2022-09-30T17:02:47;13.00;99.90
11511;DHT22;5812;48.864;9.190;2022-09-30T17:05:14;12.80;99.90
11511;DHT22;5812;48.864;9.190;2022-09-30T17:07:44;12.70;99.90
11511;DHT22;5812;48.864;9.190;2022-09-30T17:10:18;12.60;99.90
11511;DHT22;5812;48.864;9.190;2022-09-30T17:12:44;12.40;99.90
11511;DHT22;5812;48.864;9.190;2022-09-30T17:15:10;12.20;99.90
11511;DHT22;5812;48.864;9.190;2022-09-30T17:17:36;12.10;99.90
11511;DHT22;5812;48.864;9.190;2022-09-30T17:20:01;12.30;99.90
11511;DHT22;5812;48.864;9.190;2022-09-30T17:22:27;12.40;99.90
11511;DHT22;5812;48.864;9.190;2022-09-30T17:24:52;12.40;99.90
11511;DHT22;5812;48.864;9.190;2022-09-30T17:27:18;12.90;99.90
11511;DHT22;5812;48.864;9.190;2022-09-30T17:29:43;12.20;99.90
11511;DHT22;5812;48.864;9.190;2022-09-30T17:32:09;12.10;99.90
11511;DHT22;5812;48.864;9.190;2022-09-30T17:34:35;12.00;99.90
11511;DHT22;5812;48.864;9.190;2022-09-30T17:37:00;11.70;99.90
11511;DHT22;5812;48.864;9.190;2022-09-30T17:39:26;11.50;99.90
11511;DHT22;5812;48.864;9.190;2022-09-30T17:41:54;11.50;99.90
11511;DHT22;5812;48.864;9.190;2022-09-30T17:44:39;11.40;99.90
11511;DHT22;5812;48.864;9.190;2022-09-30T17:47:04;11.50;99.90
11511;DHT22;5812;48.864;9.190;2022-09-30T17:49:31;11.20;99.90
11511;DHT22;5812;48.864;9.190;2022-09-30T17:51:57;11.10;99.90
11511;DHT22;5812;48.864;9.190;2022-09-30T17:54:23;11.50;1.00
11511;DHT22;5812;48.864;9.190;2022-09-30T17:56:49;10.80;1.00
11511;DHT22;5812;48.864;9.190;2022-09-30T17:59:14;10.80;1.00
11511;DHT22;5812;48.864;9.190;2022-09-30T18:01:49;10.90;1.00
11511;DHT22;5812;48.864;9.190;2022-09-30T18:04:15;10.80;1.00
11511;DHT22;5812;48.864;9.190;2022-09-30T18:06:41;10.90;1.00
11511;DHT22;5812;48.864;9.190;2022-09-30T18:09:07;11.00;1.00
11511;DHT22;5812;48.864;9.190;2022-09-30T18:11:32;10.80;1.00
11511;DHT22;5812;48.864;9.190;2022-09-30T18:13:58;10.70;1.00
11511;DHT22;5812;48.864;9.190;2022-09-30T18:16:29;10.70;1.00
11511;DHT22;5812;48.864;9.190;2022-09-30T18:19:01;10.50;7.20
11511;DHT22;5812;48.864;9.190;2022-09-30T18:21:27;10.30;24.50
11511;DHT22;5812;48.864;9.190;2022-09-30T18:23:54;10.20;30.00
11511;DHT22;5812;48.864;9.190;2022-09-30T18:26:24;10.30;47.00
11511;DHT22;5812;48.864;9.190;2022-09-30T18:28:50;11.20;57.50
11511;DHT22;5812;48.864;9.190;2022-09-30T18:31:18;10.10;86.20
11511;DHT22;5812;48.864;9.190;2022-09-30T18:33:53;10.30;96.00
11511;DHT22;5812;48.864;9.190;2022-09-30T18:36:19;10.80;96.60
11511;DHT22;5812;48.864;9.190;2022-09-30T18:38:45;9.90;99.90
11511;DHT22;5812;48.864;9.190;2022-09-30T18:41:11;9.90;99.90
11511;DHT22;5812;48.864;9.190;2022-09-30T18:43:38;9.80;99.90
11511;DHT22;5812;48.864;9.190;2022-09-30T18:46:04;9.90;99.60
11511;DHT22;5812;48.864;9.190;2022-09-30T18:48:31;9.90;99.90
11511;DHT22;5812;48.864;9.190;2022-09-30T18:51:03;10.00;99.90
11511;DHT22;5812;48.864;9.190;2022-09-30T18:53:28;9.90;99.90
11511;DHT22;5812;48.864;9.190;2022-09-30T18:56:02;10.40;99.90
11511;DHT22;5812;48.864;9.190;2022-09-30T18:58:28;9.90;99.90
11511;DHT22;5812;48.864;9.190;2022-09-30T19:00:59;11.70;99.90
11511;DHT22;5812;48.864;9.190;2022-09-30T19:03:30;10.30;99.90
11511;DHT22;5812;48.864;9.190;2022-09-30T19:05:57;9.80;99.90
11511;DHT22;5812;48.864;9.190;2022-09-30T19:08:26;9.70;99.90
11511;DHT22;5812;48.864;9.190;2022-09-30T19:10:51;9.70;99.90
11511;DHT22;5812;48.864;9.190;2022-09-30T19:13:19;9.60;99.90
11511;DHT22;5812;48.864;9.190;2022-09-30T19:15:44;9.50;99.90
11511;DHT22;5812;48.864;9.190;2022-09-30T19:18:10;9.50;99.90
11511;DHT22;5812;48.864;9.190;2022-09-30T19:20:36;9.50;99.90
11511;DHT22;5812;48.864;9.190;2022-09-30T19:23:05;10.00;99.90